sensor_id;sensor_type;location;lat;lon;timestamp;temperature;humidity
24374;DHT22;12498;50.880;12.096;2022-09-09T00:04:33;15.10;99.90
24374;DHT22;12498;50.880;12.096;2022-09-09T00:07:13;15.00;99.90
24374;DHT22;12498;50.880;12.096;2022-09-09T00:15:54;15.10;99.90
24374;DHT22;12498;50.880;12.096;2022-09-09T00:21:18;15.10;99.90
24374;DHT22;12498;50.880;12.096;2022-09-09T00:23:56;15.20;99.90
24374;DHT22;12498;50.880;12.096;2022-09-09T00:29:27;15.20;99.90
24374;DHT22;12498;50.880;12.096;2022-09-09T00:32:04;15.20;99.90
24374;DHT22;12498;50.880;12.096;2022-09-09T00:34:31;15.20;99.90
24374;DHT22;12498;50.880;12.096;2022-09-09T00:36:58;15.20;99.90
24374;DHT22;12498;50.880;12.096;2022-09-09T00:39:34;15.20;99.90
24374;DHT22;12498;50.880;12.096;2022-09-09T00:47:53;15.10;99.90
24374;DHT22;12498;50.880;12.096;2022-09-09T00:50:35;15.00;99.90
24374;DHT22;12498;50.880;12.096;2022-09-09T00:56:13;15.00;99.90
24374;DHT22;12498;50.880;12.096;2022-09-09T00:58:43;14.90;99.90
24374;DHT22;12498;50.880;12.096;2022-09-09T01:01:13;14.90;99.90
24374;DHT22;12498;50.880;12.096;2022-09-09T01:03:55;14.90;99.90
24374;DHT22;12498;50.880;12.096;2022-09-09T01:15:00;14.90;99.90
24374;DHT22;12498;50.880;12.096;2022-09-09T01:17:44;14.90;99.90
24374;DHT22;12498;50.880;12.096;2022-09-09T01:23:13;14.80;99.90
24374;DHT22;12498;50.880;12.096;2022-09-09T01:28:28;14.80;99.90
24374;DHT22;12498;50.880;12.096;2022-09-09T01:30:55;14.80;99.90
24374;DHT22;12498;50.880;12.096;2022-09-09T01:33:22;14.70;99.90
24374;DHT22;12498;50.880;12.096;2022-09-09T01:35:55;14.70;99.90
24374;DHT22;12498;50.880;12.096;2022-09-09T01:38:24;14.70;99.90
24374;DHT22;12498;50.880;12.096;2022-09-09T01:40:50;14.70;99.90
24374;DHT22;12498;50.880;12.096;2022-09-09T01:43:21;14.70;99.90
24374;DHT22;12498;50.880;12.096;2022-09-09T01:45:49;14.70;99.90
24374;DHT22;12498;50.880;12.096;2022-09-09T01:48:19;14.70;99.90
24374;DHT22;12498;50.880;12.096;2022-09-09T01:50:45;14.70;99.90
24374;DHT22;12498;50.880;12.096;2022-09-09T01:53:11;14.70;99.90
24374;DHT22;12498;50.880;12.096;2022-09-09T01:55:44;14.70;99.90
24374;DHT22;12498;50.880;12.096;2022-09-09T02:03:32;14.60;99.90
24374;DHT22;12498;50.880;12.096;2022-09-09T02:06:34;14.60;99.90
24374;DHT22;12498;50.880;12.096;2022-09-09T02:09:01;14.60;99.90
24374;DHT22;12498;50.880;12.096;2022-09-09T02:11:28;14.60;99.90
24374;DHT22;12498;50.880;12.096;2022-09-09T02:14:01;14.60;99.90
24374;DHT22;12498;50.880;12.096;2022-09-09T02:16:40;14.60;99.90
24374;DHT22;12498;50.880;12.096;2022-09-09T02:21:44;14.50;99.90
24374;DHT22;12498;50.880;12.096;2022-09-09T02:24:11;14.50;99.90
24374;DHT22;12498;50.880;12.096;2022-09-09T02:26:40;14.50;99.90
24374;DHT22;12498;50.880;12.096;2022-09-09T02:29:21;14.50;99.90
24374;DHT22;12498;50.880;12.096;2022-09-09T02:31:49;14.50;99.90
24374;DHT22;12498;50.880;12.096;2022-09-09T02:34:17;14.50;99.90
24374;DHT22;12498;50.880;12.096;2022-09-09T02:36:45;14.50;99.90
24374;DHT22;12498;50.880;12.096;2022-09-09T02:39:12;14.40;99.90
24374;DHT22;12498;50.880;12.096;2022-09-09T02:41:40;14.40;99.90
24374;DHT22;12498;50.880;12.096;2022-09-09T02:44:14;14.40;99.90
24374;DHT22;12498;50.880;12.096;2022-09-09T02:52:15;14.40;99.90
24374;DHT22;12498;50.880;12.096;2022-09-09T02:54:45;14.40;99.90
24374;DHT22;12498;50.880;12.096;2022-09-09T02:57:12;14.30;99.90
24374;DHT22;12498;50.880;12.096;2022-09-09T02:59:39;14.40;99.90
24374;DHT22;12498;50.880;12.096;2022-09-09T03:02:05;14.30;99.90
24374;DHT22;12498;50.880;12.096;2022-09-09T03:04:31;14.30;99.90
24374;DHT22;12498;50.880;12.096;2022-09-09T03:06:57;14.30;99.90
24374;DHT22;12498;50.880;12.096;2022-09-09T03:09:23;14.20;99.90
24374;DHT22;12498;50.880;12.096;2022-09-09T03:11:49;14.30;99.90
24374;DHT22;12498;50.880;12.096;2022-09-09T03:14:15;14.20;99.90
24374;DHT22;12498;50.880;12.096;2022-09-09T03:16:41;14.20;99.90
24374;DHT22;12498;50.880;12.096;2022-09-09T03:19:08;14.30;99.90
24374;DHT22;12498;50.880;12.096;2022-09-09T03:21:34;14.20;99.90
24374;DHT22;12498;50.880;12.096;2022-09-09T03:23:59;14.20;99.90
24374;DHT22;12498;50.880;12.096;2022-09-09T03:26:25;14.20;99.90
24374;DHT22;12498;50.880;12.096;2022-09-09T03:28:51;14.20;99.90
24374;DHT22;12498;50.880;12.096;2022-09-09T03:31:17;14.20;99.90
24374;DHT22;12498;50.880;12.096;2022-09-09T03:33:45;14.20;99.90
24374;DHT22;12498;50.880;12.096;2022-09-09T03:36:10;14.20;99.90
24374;DHT22;12498;50.880;12.096;2022-09-09T03:38:36;14.20;99.90
24374;DHT22;12498;50.880;12.096;2022-09-09T03:41:02;14.20;99.90
24374;DHT22;12498;50.880;12.096;2022-09-09T03:43:28;14.10;99.90
24374;DHT22;12498;50.880;12.096;2022-09-09T03:45:55;14.20;99.90
24374;DHT22;12498;50.880;12.096;2022-09-09T03:48:24;14.20;99.90
24374;DHT22;12498;50.880;12.096;2022-09-09T03:50:52;14.20;99.90
24374;DHT22;12498;50.880;12.096;2022-09-09T03:53:21;14.20;99.90
24374;DHT22;12498;50.880;12.096;2022-09-09T03:55:48;14.20;99.90
24374;DHT22;12498;50.880;12.096;2022-09-09T03:58:14;14.20;99.90
24374;DHT22;12498;50.880;12.096;2022-09-09T04:00:40;14.20;99.90
24374;DHT22;12498;50.880;12.096;2022-09-09T04:03:11;14.20;99.90
24374;DHT22;12498;50.880;12.096;2022-09-09T04:05:39;14.20;99.90
24374;DHT22;12498;50.880;12.096;2022-09-09T04:08:07;14.20;99.90
24374;DHT22;12498;50.880;12.096;2022-09-09T04:10:34;14.20;99.90
24374;DHT22;12498;50.880;12.096;2022-09-09T04:13:03;14.20;99.90
24374;DHT22;12498;50.880;12.096;2022-09-09T04:15:30;14.20;99.90
24374;DHT22;12498;50.880;12.096;2022-09-09T04:17:55;14.20;99.90
24374;DHT22;12498;50.880;12.096;2022-09-09T04:20:21;14.20;99.90
24374;DHT22;12498;50.880;12.096;2022-09-09T04:22:47;14.40;99.90
24374;DHT22;12498;50.880;12.096;2022-09-09T04:25:13;14.80;99.90
24374;DHT22;12498;50.880;12.096;2022-09-09T04:27:39;15.20;99.90
24374;DHT22;12498;50.880;12.096;2022-09-09T04:30:06;15.40;99.90
24374;DHT22;12498;50.880;12.096;2022-09-09T04:32:33;15.50;99.90
24374;DHT22;12498;50.880;12.096;2022-09-09T04:34:59;15.50;99.90
24374;DHT22;12498;50.880;12.096;2022-09-09T04:37:25;15.60;99.90
24374;DHT22;12498;50.880;12.096;2022-09-09T04:39:50;15.60;99.90
24374;DHT22;12498;50.880;12.096;2022-09-09T04:42:16;15.60;99.90
24374;DHT22;12498;50.880;12.096;2022-09-09T04:44:44;15.70;99.90
24374;DHT22;12498;50.880;12.096;2022-09-09T04:47:10;15.80;99.90
24374;DHT22;12498;50.880;12.096;2022-09-09T04:49:36;15.80;99.90
24374;DHT22;12498;50.880;12.096;2022-09-09T04:52:04;15.80;99.90
24374;DHT22;12498;50.880;12.096;2022-09-09T04:54:30;15.80;99.90
24374;DHT22;12498;50.880;12.096;2022-09-09T04:56:55;15.90;99.90
24374;DHT22;12498;50.880;12.096;2022-09-09T04:59:21;16.00;99.90
24374;DHT22;12498;50.880;12.096;2022-09-09T05:01:48;16.00;99.90
24374;DHT22;12498;50.880;12.096;2022-09-09T05:04:14;16.00;99.90
24374;DHT22;12498;50.880;12.096;2022-09-09T05:06:44;16.00;99.90
24374;DHT22;12498;50.880;12.096;2022-09-09T05:09:11;16.00;99.90
24374;DHT22;12498;50.880;12.096;2022-09-09T05:11:36;15.90;99.90
24374;DHT22;12498;50.880;12.096;2022-09-09T05:14:03;15.80;99.90
24374;DHT22;12498;50.880;12.096;2022-09-09T05:16:29;15.70;99.90
24374;DHT22;12498;50.880;12.096;2022-09-09T05:18:55;15.60;99.90
24374;DHT22;12498;50.880;12.096;2022-09-09T05:21:22;15.60;99.90
24374;DHT22;12498;50.880;12.096;2022-09-09T05:23:49;15.50;99.90
24374;DHT22;12498;50.880;12.096;2022-09-09T05:26:18;15.50;99.90
24374;DHT22;12498;50.880;12.096;2022-09-09T05:28:44;15.50;99.90
24374;DHT22;12498;50.880;12.096;2022-09-09T05:31:11;15.50;99.90
24374;DHT22;12498;50.880;12.096;2022-09-09T05:33:39;15.50;99.90
24374;DHT22;12498;50.880;12.096;2022-09-09T05:36:10;15.50;99.90
24374;DHT22;12498;50.880;12.096;2022-09-09T05:38:39;15.50;99.90
24374;DHT22;12498;50.880;12.096;2022-09-09T05:41:05;15.60;99.90
24374;DHT22;12498;50.880;12.096;2022-09-09T05:43:31;15.60;99.90
24374;DHT22;12498;50.880;12.096;2022-09-09T05:46:06;15.50;99.90
24374;DHT22;12498;50.880;12.096;2022-09-09T05:48:34;15.50;99.90
24374;DHT22;12498;50.880;12.096;2022-09-09T05:51:00;15.40;99.90
24374;DHT22;12498;50.880;12.096;2022-09-09T05:53:28;15.40;99.90
24374;DHT22;12498;50.880;12.096;2022-09-09T05:56:09;15.40;99.90
24374;DHT22;12498;50.880;12.096;2022-09-09T05:58:39;15.40;99.90
24374;DHT22;12498;50.880;12.096;2022-09-09T06:03:33;15.70;99.90
24374;DHT22;12498;50.880;12.096;2022-09-09T06:06:04;15.70;99.90
24374;DHT22;12498;50.880;12.096;2022-09-09T06:08:35;15.70;99.90
24374;DHT22;12498;50.880;12.096;2022-09-09T06:11:04;15.70;99.90
24374;DHT22;12498;50.880;12.096;2022-09-09T06:13:31;15.80;99.90
24374;DHT22;12498;50.880;12.096;2022-09-09T06:15:56;15.90;99.90
24374;DHT22;12498;50.880;12.096;2022-09-09T06:18:24;15.90;99.90
24374;DHT22;12498;50.880;12.096;2022-09-09T06:21:00;16.00;99.90
24374;DHT22;12498;50.880;12.096;2022-09-09T06:23:27;16.00;99.90
24374;DHT22;12498;50.880;12.096;2022-09-09T06:26:03;16.10;99.90
24374;DHT22;12498;50.880;12.096;2022-09-09T06:28:31;16.00;99.90
24374;DHT22;12498;50.880;12.096;2022-09-09T06:31:01;16.10;99.90
24374;DHT22;12498;50.880;12.096;2022-09-09T06:33:30;16.10;99.90
24374;DHT22;12498;50.880;12.096;2022-09-09T06:35:55;16.20;99.90
24374;DHT22;12498;50.880;12.096;2022-09-09T06:38:22;16.20;99.90
24374;DHT22;12498;50.880;12.096;2022-09-09T06:40:53;16.20;99.90
24374;DHT22;12498;50.880;12.096;2022-09-09T06:43:20;16.30;99.90
24374;DHT22;12498;50.880;12.096;2022-09-09T06:45:56;16.30;99.90
24374;DHT22;12498;50.880;12.096;2022-09-09T06:48:22;16.30;99.90
24374;DHT22;12498;50.880;12.096;2022-09-09T06:50:48;16.30;99.90
24374;DHT22;12498;50.880;12.096;2022-09-09T06:53:18;16.40;99.90
24374;DHT22;12498;50.880;12.096;2022-09-09T06:55:46;16.40;99.90
24374;DHT22;12498;50.880;12.096;2022-09-09T06:58:12;16.40;99.90
24374;DHT22;12498;50.880;12.096;2022-09-09T07:00:37;16.40;99.90
24374;DHT22;12498;50.880;12.096;2022-09-09T07:03:04;16.40;99.90
24374;DHT22;12498;50.880;12.096;2022-09-09T07:05:31;16.40;99.90
24374;DHT22;12498;50.880;12.096;2022-09-09T07:07:57;16.50;99.90
24374;DHT22;12498;50.880;12.096;2022-09-09T07:10:22;16.50;99.90
24374;DHT22;12498;50.880;12.096;2022-09-09T07:12:51;16.60;99.90
24374;DHT22;12498;50.880;12.096;2022-09-09T07:15:18;16.70;99.90
24374;DHT22;12498;50.880;12.096;2022-09-09T07:17:44;16.90;99.90
24374;DHT22;12498;50.880;12.096;2022-09-09T07:20:10;17.00;99.90
24374;DHT22;12498;50.880;12.096;2022-09-09T07:22:37;17.20;99.90
24374;DHT22;12498;50.880;12.096;2022-09-09T07:25:03;17.40;99.90
24374;DHT22;12498;50.880;12.096;2022-09-09T07:27:28;17.50;99.90
24374;DHT22;12498;50.880;12.096;2022-09-09T07:29:54;17.60;99.90
24374;DHT22;12498;50.880;12.096;2022-09-09T07:32:20;17.80;99.90
24374;DHT22;12498;50.880;12.096;2022-09-09T07:34:48;17.70;99.90
24374;DHT22;12498;50.880;12.096;2022-09-09T07:37:15;17.80;99.90
24374;DHT22;12498;50.880;12.096;2022-09-09T07:39:41;17.80;99.90
24374;DHT22;12498;50.880;12.096;2022-09-09T07:42:07;17.80;99.90
24374;DHT22;12498;50.880;12.096;2022-09-09T07:44:34;17.90;99.90
24374;DHT22;12498;50.880;12.096;2022-09-09T07:47:02;18.10;99.90
24374;DHT22;12498;50.880;12.096;2022-09-09T07:49:27;18.20;99.90
24374;DHT22;12498;50.880;12.096;2022-09-09T07:51:53;18.30;99.90
24374;DHT22;12498;50.880;12.096;2022-09-09T07:54:19;18.30;99.90
24374;DHT22;12498;50.880;12.096;2022-09-09T07:56:46;18.40;99.90
24374;DHT22;12498;50.880;12.096;2022-09-09T07:59:13;18.50;99.90
24374;DHT22;12498;50.880;12.096;2022-09-09T08:01:44;18.50;99.90
24374;DHT22;12498;50.880;12.096;2022-09-09T08:04:13;18.70;99.90
24374;DHT22;12498;50.880;12.096;2022-09-09T08:06:53;18.70;99.90
24374;DHT22;12498;50.880;12.096;2022-09-09T08:09:20;18.80;99.90
24374;DHT22;12498;50.880;12.096;2022-09-09T08:11:46;18.90;99.90
24374;DHT22;12498;50.880;12.096;2022-09-09T08:14:12;18.90;99.90
24374;DHT22;12498;50.880;12.096;2022-09-09T08:16:44;18.90;99.90
24374;DHT22;12498;50.880;12.096;2022-09-09T08:19:10;18.90;99.90
24374;DHT22;12498;50.880;12.096;2022-09-09T08:21:38;19.00;99.90
24374;DHT22;12498;50.880;12.096;2022-09-09T08:24:07;18.90;99.90
24374;DHT22;12498;50.880;12.096;2022-09-09T08:26:36;19.20;99.90
24374;DHT22;12498;50.880;12.096;2022-09-09T08:29:04;19.40;99.90
24374;DHT22;12498;50.880;12.096;2022-09-09T08:31:35;19.50;99.90
24374;DHT22;12498;50.880;12.096;2022-09-09T08:34:03;19.70;99.90
24374;DHT22;12498;50.880;12.096;2022-09-09T08:36:32;19.70;99.90
24374;DHT22;12498;50.880;12.096;2022-09-09T08:39:01;19.70;99.90
24374;DHT22;12498;50.880;12.096;2022-09-09T08:47:45;20.00;99.90
24374;DHT22;12498;50.880;12.096;2022-09-09T08:53:17;19.90;99.90
24374;DHT22;12498;50.880;12.096;2022-09-09T08:58:21;19.80;99.90
24374;DHT22;12498;50.880;12.096;2022-09-09T09:06:01;19.90;99.90
24374;DHT22;12498;50.880;12.096;2022-09-09T09:08:35;19.70;99.90
24374;DHT22;12498;50.880;12.096;2022-09-09T09:11:04;19.60;99.90
24374;DHT22;12498;50.880;12.096;2022-09-09T09:13:54;19.60;99.90
24374;DHT22;12498;50.880;12.096;2022-09-09T09:16:27;19.60;99.90
24374;DHT22;12498;50.880;12.096;2022-09-09T09:18:54;19.60;99.90
24374;DHT22;12498;50.880;12.096;2022-09-09T09:21:43;19.60;99.90
24374;DHT22;12498;50.880;12.096;2022-09-09T09:24:23;19.70;99.90
24374;DHT22;12498;50.880;12.096;2022-09-09T09:26:52;19.70;99.90
24374;DHT22;12498;50.880;12.096;2022-09-09T09:29:19;19.70;99.90
24374;DHT22;12498;50.880;12.096;2022-09-09T09:31:51;19.70;99.90
24374;DHT22;12498;50.880;12.096;2022-09-09T09:34:17;19.70;99.90
24374;DHT22;12498;50.880;12.096;2022-09-09T09:36:44;19.80;99.90
24374;DHT22;12498;50.880;12.096;2022-09-09T09:39:31;19.90;99.90
24374;DHT22;12498;50.880;12.096;2022-09-09T09:42:27;20.10;99.90
24374;DHT22;12498;50.880;12.096;2022-09-09T09:44:53;20.20;99.90
24374;DHT22;12498;50.880;12.096;2022-09-09T09:47:21;20.40;99.90
24374;DHT22;12498;50.880;12.096;2022-09-09T09:50:00;20.60;99.90
24374;DHT22;12498;50.880;12.096;2022-09-09T09:52:28;21.10;99.90
24374;DHT22;12498;50.880;12.096;2022-09-09T09:54:56;21.30;99.90
24374;DHT22;12498;50.880;12.096;2022-09-09T09:57:31;21.40;99.90
24374;DHT22;12498;50.880;12.096;2022-09-09T10:02:47;22.00;99.90
24374;DHT22;12498;50.880;12.096;2022-09-09T10:05:24;22.10;99.90
24374;DHT22;12498;50.880;12.096;2022-09-09T10:08:04;21.80;99.90
24374;DHT22;12498;50.880;12.096;2022-09-09T10:19:04;22.80;99.90
24374;DHT22;12498;50.880;12.096;2022-09-09T10:26:44;22.20;99.90
24374;DHT22;12498;50.880;12.096;2022-09-09T10:29:45;22.20;99.90
24374;DHT22;12498;50.880;12.096;2022-09-09T10:32:41;22.30;99.90
24374;DHT22;12498;50.880;12.096;2022-09-09T10:46:46;24.90;99.90
24374;DHT22;12498;50.880;12.096;2022-09-09T10:57:25;23.60;99.90
24374;DHT22;12498;50.880;12.096;2022-09-09T10:59:56;24.00;99.90
24374;DHT22;12498;50.880;12.096;2022-09-09T11:02:30;23.80;99.90
24374;DHT22;12498;50.880;12.096;2022-09-09T11:05:16;23.10;99.90
24374;DHT22;12498;50.880;12.096;2022-09-09T11:07:58;22.50;99.90
24374;DHT22;12498;50.880;12.096;2022-09-09T11:10:34;22.30;99.90
24374;DHT22;12498;50.880;12.096;2022-09-09T11:13:09;22.80;99.90
24374;DHT22;12498;50.880;12.096;2022-09-09T11:15:46;26.40;99.90
24374;DHT22;12498;50.880;12.096;2022-09-09T11:18:19;29.80;95.00
24374;DHT22;12498;50.880;12.096;2022-09-09T11:20:50;32.40;83.60
24374;DHT22;12498;50.880;12.096;2022-09-09T11:23:39;31.30;77.80
24374;DHT22;12498;50.880;12.096;2022-09-09T11:26:08;28.60;83.90
24374;DHT22;12498;50.880;12.096;2022-09-09T11:42:23;32.30;74.30
24374;DHT22;12498;50.880;12.096;2022-09-09T11:44:50;33.40;68.00
24374;DHT22;12498;50.880;12.096;2022-09-09T11:47:27;33.10;66.20
24374;DHT22;12498;50.880;12.096;2022-09-09T11:50:22;31.90;66.30
24374;DHT22;12498;50.880;12.096;2022-09-09T11:55:34;27.40;78.00
24374;DHT22;12498;50.880;12.096;2022-09-09T11:58:01;26.40;83.20
24374;DHT22;12498;50.880;12.096;2022-09-09T12:00:33;25.90;87.40
24374;DHT22;12498;50.880;12.096;2022-09-09T12:02:59;25.30;90.00
24374;DHT22;12498;50.880;12.096;2022-09-09T12:05:39;24.70;91.70
24374;DHT22;12498;50.880;12.096;2022-09-09T12:08:09;24.60;92.90
24374;DHT22;12498;50.880;12.096;2022-09-09T12:10:39;24.80;93.20
24374;DHT22;12498;50.880;12.096;2022-09-09T12:15:54;24.70;93.50
24374;DHT22;12498;50.880;12.096;2022-09-09T12:18:26;24.60;93.70
24374;DHT22;12498;50.880;12.096;2022-09-09T12:21:02;24.00;94.70
24374;DHT22;12498;50.880;12.096;2022-09-09T12:26:09;23.80;96.00
24374;DHT22;12498;50.880;12.096;2022-09-09T12:28:42;23.90;96.40
24374;DHT22;12498;50.880;12.096;2022-09-09T12:31:10;24.00;96.40
24374;DHT22;12498;50.880;12.096;2022-09-09T12:33:44;24.10;96.70
24374;DHT22;12498;50.880;12.096;2022-09-09T12:36:21;24.00;96.90
24374;DHT22;12498;50.880;12.096;2022-09-09T12:38:48;24.10;97.30
24374;DHT22;12498;50.880;12.096;2022-09-09T12:41:25;24.30;96.90
24374;DHT22;12498;50.880;12.096;2022-09-09T12:43:51;24.60;96.50
24374;DHT22;12498;50.880;12.096;2022-09-09T12:46:43;24.90;95.50
24374;DHT22;12498;50.880;12.096;2022-09-09T12:49:42;25.10;94.20
24374;DHT22;12498;50.880;12.096;2022-09-09T12:52:13;24.80;94.40
24374;DHT22;12498;50.880;12.096;2022-09-09T12:54:44;24.50;94.80
24374;DHT22;12498;50.880;12.096;2022-09-09T12:57:12;24.30;95.20
24374;DHT22;12498;50.880;12.096;2022-09-09T12:59:41;25.00;94.70
24374;DHT22;12498;50.880;12.096;2022-09-09T13:04:44;27.50;86.90
24374;DHT22;12498;50.880;12.096;2022-09-09T13:07:12;27.20;85.70
24374;DHT22;12498;50.880;12.096;2022-09-09T13:09:39;26.90;84.90
24374;DHT22;12498;50.880;12.096;2022-09-09T13:12:09;26.10;86.40
24374;DHT22;12498;50.880;12.096;2022-09-09T13:14:37;25.40;87.60
24374;DHT22;12498;50.880;12.096;2022-09-09T13:17:05;25.00;88.50
24374;DHT22;12498;50.880;12.096;2022-09-09T13:19:38;24.70;90.20
24374;DHT22;12498;50.880;12.096;2022-09-09T13:22:14;24.60;90.60
24374;DHT22;12498;50.880;12.096;2022-09-09T13:24:40;24.40;90.80
24374;DHT22;12498;50.880;12.096;2022-09-09T13:27:28;24.70;90.00
24374;DHT22;12498;50.880;12.096;2022-09-09T13:29:55;25.50;88.60
24374;DHT22;12498;50.880;12.096;2022-09-09T13:32:23;25.70;86.30
24374;DHT22;12498;50.880;12.096;2022-09-09T13:34:58;25.90;85.20
24374;DHT22;12498;50.880;12.096;2022-09-09T13:37:32;25.60;85.00
24374;DHT22;12498;50.880;12.096;2022-09-09T13:39:59;25.50;86.60
24374;DHT22;12498;50.880;12.096;2022-09-09T13:42:29;25.00;87.30
24374;DHT22;12498;50.880;12.096;2022-09-09T13:44:58;24.50;89.80
24374;DHT22;12498;50.880;12.096;2022-09-09T13:47:35;24.30;90.60
24374;DHT22;12498;50.880;12.096;2022-09-09T13:52:44;23.90;91.40
24374;DHT22;12498;50.880;12.096;2022-09-09T13:55:10;23.60;92.20
24374;DHT22;12498;50.880;12.096;2022-09-09T13:57:36;23.30;93.00
24374;DHT22;12498;50.880;12.096;2022-09-09T14:00:02;23.20;93.50
24374;DHT22;12498;50.880;12.096;2022-09-09T14:02:28;23.10;93.90
24374;DHT22;12498;50.880;12.096;2022-09-09T14:04:53;23.00;95.10
24374;DHT22;12498;50.880;12.096;2022-09-09T14:07:21;22.80;95.90
24374;DHT22;12498;50.880;12.096;2022-09-09T14:09:46;22.60;97.00
24374;DHT22;12498;50.880;12.096;2022-09-09T14:12:15;22.40;98.00
24374;DHT22;12498;50.880;12.096;2022-09-09T14:14:42;22.20;98.80
24374;DHT22;12498;50.880;12.096;2022-09-09T14:17:08;22.00;99.70
24374;DHT22;12498;50.880;12.096;2022-09-09T14:19:35;21.90;99.90
24374;DHT22;12498;50.880;12.096;2022-09-09T14:22:01;21.80;99.90
24374;DHT22;12498;50.880;12.096;2022-09-09T14:24:27;21.80;99.90
24374;DHT22;12498;50.880;12.096;2022-09-09T14:26:53;21.80;99.90
24374;DHT22;12498;50.880;12.096;2022-09-09T14:29:19;21.80;99.90
24374;DHT22;12498;50.880;12.096;2022-09-09T14:31:44;21.80;99.90
24374;DHT22;12498;50.880;12.096;2022-09-09T14:34:10;22.00;99.90
24374;DHT22;12498;50.880;12.096;2022-09-09T14:36:36;22.80;99.90
24374;DHT22;12498;50.880;12.096;2022-09-09T14:39:02;24.10;98.00
24374;DHT22;12498;50.880;12.096;2022-09-09T14:41:37;25.90;94.00
24374;DHT22;12498;50.880;12.096;2022-09-09T14:44:03;26.30;91.30
24374;DHT22;12498;50.880;12.096;2022-09-09T14:46:28;25.40;91.80
24374;DHT22;12498;50.880;12.096;2022-09-09T14:48:54;24.60;93.20
24374;DHT22;12498;50.880;12.096;2022-09-09T14:51:22;23.80;94.20
24374;DHT22;12498;50.880;12.096;2022-09-09T14:53:51;23.30;95.50
24374;DHT22;12498;50.880;12.096;2022-09-09T14:56:20;23.00;94.70
24374;DHT22;12498;50.880;12.096;2022-09-09T14:58:47;22.60;95.60
24374;DHT22;12498;50.880;12.096;2022-09-09T15:01:16;22.60;94.30
24374;DHT22;12498;50.880;12.096;2022-09-09T15:03:44;22.80;94.70
24374;DHT22;12498;50.880;12.096;2022-09-09T15:06:14;23.50;94.50
24374;DHT22;12498;50.880;12.096;2022-09-09T15:08:45;24.10;92.90
24374;DHT22;12498;50.880;12.096;2022-09-09T15:11:12;24.30;90.80
24374;DHT22;12498;50.880;12.096;2022-09-09T15:13:39;24.50;90.20
24374;DHT22;12498;50.880;12.096;2022-09-09T15:16:18;24.70;90.20
24374;DHT22;12498;50.880;12.096;2022-09-09T15:18:45;24.80;89.80
24374;DHT22;12498;50.880;12.096;2022-09-09T15:21:17;24.90;90.20
24374;DHT22;12498;50.880;12.096;2022-09-09T15:23:44;25.00;89.70
24374;DHT22;12498;50.880;12.096;2022-09-09T15:26:11;25.00;90.00
24374;DHT22;12498;50.880;12.096;2022-09-09T15:28:39;24.80;90.40
24374;DHT22;12498;50.880;12.096;2022-09-09T15:31:11;24.50;91.30
24374;DHT22;12498;50.880;12.096;2022-09-09T15:33:37;24.40;91.60
24374;DHT22;12498;50.880;12.096;2022-09-09T15:38:43;24.80;92.50
24374;DHT22;12498;50.880;12.096;2022-09-09T15:41:10;24.90;92.50
24374;DHT22;12498;50.880;12.096;2022-09-09T15:43:36;25.00;92.20
24374;DHT22;12498;50.880;12.096;2022-09-09T15:46:23;25.10;91.80
24374;DHT22;12498;50.880;12.096;2022-09-09T15:48:54;25.10;91.40
24374;DHT22;12498;50.880;12.096;2022-09-09T15:51:20;25.10;91.30
24374;DHT22;12498;50.880;12.096;2022-09-09T15:53:46;25.10;92.20
24374;DHT22;12498;50.880;12.096;2022-09-09T15:56:12;25.00;91.40
24374;DHT22;12498;50.880;12.096;2022-09-09T15:58:37;24.90;91.40
24374;DHT22;12498;50.880;12.096;2022-09-09T16:01:07;24.70;91.10
24374;DHT22;12498;50.880;12.096;2022-09-09T16:03:34;24.70;91.20
24374;DHT22;12498;50.880;12.096;2022-09-09T16:06:00;24.60;91.20
24374;DHT22;12498;50.880;12.096;2022-09-09T16:08:32;24.30;91.50
24374;DHT22;12498;50.880;12.096;2022-09-09T16:11:04;24.10;92.10
24374;DHT22;12498;50.880;12.096;2022-09-09T16:13:33;24.20;92.40
24374;DHT22;12498;50.880;12.096;2022-09-09T16:15:59;23.80;92.30
24374;DHT22;12498;50.880;12.096;2022-09-09T16:18:24;23.30;92.70
24374;DHT22;12498;50.880;12.096;2022-09-09T16:20:54;22.90;93.70
24374;DHT22;12498;50.880;12.096;2022-09-09T16:23:20;22.50;94.90
24374;DHT22;12498;50.880;12.096;2022-09-09T16:25:54;22.40;96.40
24374;DHT22;12498;50.880;12.096;2022-09-09T16:28:20;22.40;96.50
24374;DHT22;12498;50.880;12.096;2022-09-09T16:30:45;22.70;96.20
24374;DHT22;12498;50.880;12.096;2022-09-09T16:33:11;22.80;95.30
24374;DHT22;12498;50.880;12.096;2022-09-09T16:35:37;22.70;94.60
24374;DHT22;12498;50.880;12.096;2022-09-09T16:38:04;22.50;95.60
24374;DHT22;12498;50.880;12.096;2022-09-09T16:40:29;22.30;96.00
24374;DHT22;12498;50.880;12.096;2022-09-09T16:42:55;22.30;96.70
24374;DHT22;12498;50.880;12.096;2022-09-09T16:45:21;22.30;97.30
24374;DHT22;12498;50.880;12.096;2022-09-09T16:47:47;22.30;98.90
24374;DHT22;12498;50.880;12.096;2022-09-09T16:50:14;22.20;99.90
24374;DHT22;12498;50.880;12.096;2022-09-09T16:52:39;22.00;99.90
24374;DHT22;12498;50.880;12.096;2022-09-09T16:55:05;21.80;99.90
24374;DHT22;12498;50.880;12.096;2022-09-09T16:57:31;21.50;99.90
24374;DHT22;12498;50.880;12.096;2022-09-09T16:59:56;21.30;99.90
24374;DHT22;12498;50.880;12.096;2022-09-09T17:02:24;21.10;99.90
24374;DHT22;12498;50.880;12.096;2022-09-09T17:04:50;20.90;99.90
24374;DHT22;12498;50.880;12.096;2022-09-09T17:07:16;20.70;99.90
24374;DHT22;12498;50.880;12.096;2022-09-09T17:09:43;20.50;99.90
24374;DHT22;12498;50.880;12.096;2022-09-09T17:12:10;20.40;99.90
24374;DHT22;12498;50.880;12.096;2022-09-09T17:14:37;20.30;99.90
24374;DHT22;12498;50.880;12.096;2022-09-09T17:17:03;20.30;99.90
24374;DHT22;12498;50.880;12.096;2022-09-09T17:19:30;20.20;99.90
24374;DHT22;12498;50.880;12.096;2022-09-09T17:21:55;20.10;99.90
24374;DHT22;12498;50.880;12.096;2022-09-09T17:24:24;19.90;99.90
24374;DHT22;12498;50.880;12.096;2022-09-09T17:26:51;19.90;99.90
24374;DHT22;12498;50.880;12.096;2022-09-09T17:29:17;19.70;99.90
24374;DHT22;12498;50.880;12.096;2022-09-09T17:31:43;19.50;99.90
24374;DHT22;12498;50.880;12.096;2022-09-09T17:34:09;19.50;99.90
24374;DHT22;12498;50.880;12.096;2022-09-09T17:36:35;19.30;99.90
24374;DHT22;12498;50.880;12.096;2022-09-09T17:39:02;19.20;67.70
24374;DHT22;12498;50.880;12.096;2022-09-09T17:41:31;19.10;87.50
24374;DHT22;12498;50.880;12.096;2022-09-09T17:43:57;19.00;71.80
24374;DHT22;12498;50.880;12.096;2022-09-09T17:46:32;18.90;75.00